(°C)
25°
25°
24°
23°
21°
20°
18°
(°C)
25°
24°
22°
21°
19°
17°
16°
E
N
NNW
NNW
NNW
N
N
(km/h)
8-20
8-21
11-18
10-22
9-24
8-23
7-16
(mm)
0
0
0
0
0
0
0
(%)
5
11
13
13
14
14
10

Wysokość słońca

/ 54.4°
sun-icon
UV 7
05:24
20:58
Sierp ubywający (327°)
04:05
17:57

METAR dla Innsbruck (LOWI)

Czas Warunki Temperatura/
Punkt rosy
Wiatr Widzialność Pogoda Chmury Ciśn. atm. Zmień Surowy
VFR 25°C / 12°C 60º variable 020º to 100º 7kt >10km - Scattered Clouds 6000ft 1017 No Significant change LOWI 271250Z 06007KT 020V100 9999 SCT060 25/12 Q1017 NOSIG
VFR 25°C / 12°C 70º variable 030º to 110º 7kt >10km - Few Clouds 6000ft 1018 No Significant change LOWI 271220Z 07007KT 030V110 9999 FEW060 25/12 Q1018 NOSIG
VFR 24°C / 12°C 100º variable 030º to 140º 5kt >10km - Few Clouds 6000ft 1018 No Significant change LOWI 271150Z 10005KT 030V140 9999 FEW060 24/12 Q1018 NOSIG
VFR 24°C / 13°C 70º variable 040º to 100º 9kt >10km - Few Clouds 5000ft 1019 No Significant change LOWI 271120Z 07009KT 040V100 9999 FEW050 24/13 Q1019 NOSIG
VFR 23°C / 13°C 90º variable 050º to 150º 6kt >10km - Few Clouds 5000ft 1019 No Significant change LOWI 271050Z 09006KT 050V150 9999 FEW050 23/13 Q1019 NOSIG
VFR 22°C / 13°C variable 6kt >10km - Few Clouds 5000ft 1020 No Significant change LOWI 271020Z VRB06KT 9999 FEW050 22/13 Q1020 NOSIG
VFR 22°C / 12°C 90º variable 040º to 160º 6kt >10km - Few Clouds 4500ft 1020 No Significant change LOWI 270950Z 09006KT 040V160 9999 FEW045 22/12 Q1020 NOSIG
VFR 21°C / 13°C 90º variable 030º to 150º 4kt >10km - Few Clouds 4500ft 1021 No Significant change LOWI 270920Z 09004KT 030V150 9999 FEW045 21/13 Q1021 NOSIG
VFR 20°C / 11°C variable 3kt >10km - Few Clouds 4000ft 1021 No Significant change LOWI 270850Z VRB03KT 9999 FEW040 20/11 Q1021 NOSIG
VFR 19°C / 11°C variable 2kt >10km - Few Clouds 4000ft 1022 No Significant change LOWI 270820Z VRB02KT 9999 FEW040 19/11 Q1022 NOSIG
VFR 18°C / 11°C 300º variable 260º to 360º 3kt >10km - Few Clouds 4000ft 1022 No Significant change LOWI 270750Z 30003KT 260V360 9999 FEW040 18/11 Q1022 NOSIG
VFR 17°C / 11°C variable 2kt >10km - Few Clouds 4000ft 1022 No Significant change LOWI 270720Z VRB02KT 9999 FEW040 17/11 Q1022 NOSIG
VFR 16°C / 11°C variable 2kt >10km - Few Clouds 3000ft 1023 No Significant change LOWI 270650Z VRB02KT 9999 FEW030 16/11 Q1023 NOSIG
VFR 15°C / 11°C variable 2kt >10km - Few Clouds 2000ft 1023 No Significant change LOWI 270620Z VRB02KT 9999 FEW020 15/11 Q1023 NOSIG
VFR 15°C / 11°C variable 2kt >10km - Few Clouds 3500ft 1024 No Significant change LOWI 270550Z VRB02KT 9999 FEW035 15/11 Q1024 NOSIG
VFR 15°C / 11°C variable 2kt >10km - Few Clouds 3500ft
Scattered Clouds 5000ft
1024 No Significant change LOWI 270520Z VRB02KT 9999 FEW035 SCT050 15/11 Q1024 NOSIG
VFR 13°C / 11°C 300º 4kt >10km - Few Clouds 3500ft
Broken Clouds 5000ft
1024 No Significant change LOWI 270450Z 30004KT 9999 FEW035 BKN050 13/11 Q1024 NOSIG
VFR 12°C / 10°C variable 1kt >10km - Few Clouds 3500ft
Scattered Clouds 5000ft
1024 No Significant change LOWI 270420Z VRB01KT 9999 FEW035 SCT050 12/10 Q1024 NOSIG
VFR 11°C / 10°C variable 1kt >10km - Few Clouds 3500ft
Scattered Clouds 5000ft
1024 No Significant change LOWI 270350Z VRB01KT 9999 FEW035 SCT050 11/10 Q1024 NOSIG
VFR 12°C / 10°C variable 2kt >10km - Few Clouds 4800ft 1024 - LOWI 270320Z AUTO VRB02KT 9999 FEW048 12/10 Q1024
VFR 11°C / 10°C variable 1kt >10km - Few Clouds 5000ft 1023 - LOWI 270250Z AUTO VRB01KT 9999 FEW050 11/10 Q1023
VFR 12°C / 10°C variable 1kt >10km - Few Clouds 5000ft 1023 - LOWI 270220Z AUTO VRB01KT 9999 FEW050 12/10 Q1023
VFR 12°C / 10°C variable 1kt >10km - Few Clouds 4800ft
Broken Clouds 5000ft
1024 - LOWI 270150Z AUTO VRB01KT 9999 FEW048 BKN050 12/10 Q1024
VFR 12°C / 10°C variable 1kt >10km - Few Clouds 5000ft 1024 - LOWI 270120Z AUTO VRB01KT 9999 FEW050 12/10 Q1024

VFR

25°C / 12°C

[Więcej]
Wiatr 60º variable 020º to 100º 7kt
Widzialność >10km
Pogoda -
Chmury Scattered Clouds 6000ft
Ciśn. atm. 1017
Zmień No Significant change
Surowy LOWI 271250Z 06007KT 020V100 9999 SCT060 25/12 Q1017 NOSIG

VFR

25°C / 12°C

[Więcej]
Wiatr 70º variable 030º to 110º 7kt
Widzialność >10km
Pogoda -
Chmury Few Clouds 6000ft
Ciśn. atm. 1018
Zmień No Significant change
Surowy LOWI 271220Z 07007KT 030V110 9999 FEW060 25/12 Q1018 NOSIG

VFR

24°C / 12°C

[Więcej]
Wiatr 100º variable 030º to 140º 5kt
Widzialność >10km
Pogoda -
Chmury Few Clouds 6000ft
Ciśn. atm. 1018
Zmień No Significant change
Surowy LOWI 271150Z 10005KT 030V140 9999 FEW060 24/12 Q1018 NOSIG

VFR

24°C / 13°C

[Więcej]
Wiatr 70º variable 040º to 100º 9kt
Widzialność >10km
Pogoda -
Chmury Few Clouds 5000ft
Ciśn. atm. 1019
Zmień No Significant change
Surowy LOWI 271120Z 07009KT 040V100 9999 FEW050 24/13 Q1019 NOSIG

VFR

23°C / 13°C

[Więcej]
Wiatr 90º variable 050º to 150º 6kt
Widzialność >10km
Pogoda -
Chmury Few Clouds 5000ft
Ciśn. atm. 1019
Zmień No Significant change
Surowy LOWI 271050Z 09006KT 050V150 9999 FEW050 23/13 Q1019 NOSIG

VFR

22°C / 13°C

[Więcej]
Wiatr variable 6kt
Widzialność >10km
Pogoda -
Chmury Few Clouds 5000ft
Ciśn. atm. 1020
Zmień No Significant change
Surowy LOWI 271020Z VRB06KT 9999 FEW050 22/13 Q1020 NOSIG

VFR

22°C / 12°C

[Więcej]
Wiatr 90º variable 040º to 160º 6kt
Widzialność >10km
Pogoda -
Chmury Few Clouds 4500ft
Ciśn. atm. 1020
Zmień No Significant change
Surowy LOWI 270950Z 09006KT 040V160 9999 FEW045 22/12 Q1020 NOSIG

VFR

21°C / 13°C

[Więcej]
Wiatr 90º variable 030º to 150º 4kt
Widzialność >10km
Pogoda -
Chmury Few Clouds 4500ft
Ciśn. atm. 1021
Zmień No Significant change
Surowy LOWI 270920Z 09004KT 030V150 9999 FEW045 21/13 Q1021 NOSIG

VFR

20°C / 11°C

[Więcej]
Wiatr variable 3kt
Widzialność >10km
Pogoda -
Chmury Few Clouds 4000ft
Ciśn. atm. 1021
Zmień No Significant change
Surowy LOWI 270850Z VRB03KT 9999 FEW040 20/11 Q1021 NOSIG

VFR

19°C / 11°C

[Więcej]
Wiatr variable 2kt
Widzialność >10km
Pogoda -
Chmury Few Clouds 4000ft
Ciśn. atm. 1022
Zmień No Significant change
Surowy LOWI 270820Z VRB02KT 9999 FEW040 19/11 Q1022 NOSIG

VFR

18°C / 11°C

[Więcej]
Wiatr 300º variable 260º to 360º 3kt
Widzialność >10km
Pogoda -
Chmury Few Clouds 4000ft
Ciśn. atm. 1022
Zmień No Significant change
Surowy LOWI 270750Z 30003KT 260V360 9999 FEW040 18/11 Q1022 NOSIG

VFR

17°C / 11°C

[Więcej]
Wiatr variable 2kt
Widzialność >10km
Pogoda -
Chmury Few Clouds 4000ft
Ciśn. atm. 1022
Zmień No Significant change
Surowy LOWI 270720Z VRB02KT 9999 FEW040 17/11 Q1022 NOSIG

VFR

16°C / 11°C

[Więcej]
Wiatr variable 2kt
Widzialność >10km
Pogoda -
Chmury Few Clouds 3000ft
Ciśn. atm. 1023
Zmień No Significant change
Surowy LOWI 270650Z VRB02KT 9999 FEW030 16/11 Q1023 NOSIG

VFR

15°C / 11°C

[Więcej]
Wiatr variable 2kt
Widzialność >10km
Pogoda -
Chmury Few Clouds 2000ft
Ciśn. atm. 1023
Zmień No Significant change
Surowy LOWI 270620Z VRB02KT 9999 FEW020 15/11 Q1023 NOSIG

VFR

15°C / 11°C

[Więcej]
Wiatr variable 2kt
Widzialność >10km
Pogoda -
Chmury Few Clouds 3500ft
Ciśn. atm. 1024
Zmień No Significant change
Surowy LOWI 270550Z VRB02KT 9999 FEW035 15/11 Q1024 NOSIG

VFR

15°C / 11°C

[Więcej]
Wiatr variable 2kt
Widzialność >10km
Pogoda -
Chmury Few Clouds 3500ft
Scattered Clouds 5000ft
Ciśn. atm. 1024
Zmień No Significant change
Surowy LOWI 270520Z VRB02KT 9999 FEW035 SCT050 15/11 Q1024 NOSIG

VFR

13°C / 11°C

[Więcej]
Wiatr 300º 4kt
Widzialność >10km
Pogoda -
Chmury Few Clouds 3500ft
Broken Clouds 5000ft
Ciśn. atm. 1024
Zmień No Significant change
Surowy LOWI 270450Z 30004KT 9999 FEW035 BKN050 13/11 Q1024 NOSIG

VFR

12°C / 10°C

[Więcej]
Wiatr variable 1kt
Widzialność >10km
Pogoda -
Chmury Few Clouds 3500ft
Scattered Clouds 5000ft
Ciśn. atm. 1024
Zmień No Significant change
Surowy LOWI 270420Z VRB01KT 9999 FEW035 SCT050 12/10 Q1024 NOSIG

VFR

11°C / 10°C

[Więcej]
Wiatr variable 1kt
Widzialność >10km
Pogoda -
Chmury Few Clouds 3500ft
Scattered Clouds 5000ft
Ciśn. atm. 1024
Zmień No Significant change
Surowy LOWI 270350Z VRB01KT 9999 FEW035 SCT050 11/10 Q1024 NOSIG

VFR

12°C / 10°C

[Więcej]
Wiatr variable 2kt
Widzialność >10km
Pogoda -
Chmury Few Clouds 4800ft
Ciśn. atm. 1024
Zmień -
Surowy LOWI 270320Z AUTO VRB02KT 9999 FEW048 12/10 Q1024

VFR

11°C / 10°C

[Więcej]
Wiatr variable 1kt
Widzialność >10km
Pogoda -
Chmury Few Clouds 5000ft
Ciśn. atm. 1023
Zmień -
Surowy LOWI 270250Z AUTO VRB01KT 9999 FEW050 11/10 Q1023

VFR

12°C / 10°C

[Więcej]
Wiatr variable 1kt
Widzialność >10km
Pogoda -
Chmury Few Clouds 5000ft
Ciśn. atm. 1023
Zmień -
Surowy LOWI 270220Z AUTO VRB01KT 9999 FEW050 12/10 Q1023

VFR

12°C / 10°C

[Więcej]
Wiatr variable 1kt
Widzialność >10km
Pogoda -
Chmury Few Clouds 4800ft
Broken Clouds 5000ft
Ciśn. atm. 1024
Zmień -
Surowy LOWI 270150Z AUTO VRB01KT 9999 FEW048 BKN050 12/10 Q1024

VFR

12°C / 10°C

[Więcej]
Wiatr variable 1kt
Widzialność >10km
Pogoda -
Chmury Few Clouds 5000ft
Ciśn. atm. 1024
Zmień -
Surowy LOWI 270120Z AUTO VRB01KT 9999 FEW050 12/10 Q1024

TAF dla Innsbruck (LOWI)

From till


Maximum Temperature 27ºC on . Minimum Temperature 14ºC on .
From till Wind 80º 10kt. Visibility 10km or more. Scattered Clouds 5000ft.
Becoming from till Wind variable 3kt. Visibility 10km or more. Scattered Clouds 5000ft.
Temporarly from till Wind 270º 7kt. Light Showers Rain .

Surowy: TAF LOWI 271115Z 2712/2812 08010KT 9999 SCT050 TX27/2714Z TN14/2806Z BECMG 2718/2720 VRB03KT TEMPO 2722/2812 27007KT -SHRA

Radar dla Innsbruck

Mżawka
Lekkie
Umiarkowane
Intensywne
Bardzo Intensywne
Grad

Wskaźnik lokalizacji jest umieszczony na Innsbruck. Animacja przedstawia radar opadów dla ostatniej godziny, jak również 2h prognozę pogody. Mżawka i lekkie opady mogą być niewidoczne na radarze. Intensywność opadów jest oznaczona kolorami od jasnoniebieskiego do ciemnofioletowego.
Copyright 2022 Deutscher Wetterdienst / meteoblue.

Aktualne zdjęcia satelitarne i zdjęcia opadów deszczu dla Innsbruck, Austria

Wskaźnik lokalizacji znajduje się na Innsbruck. [Więcej]

Obraz satelitarny w czasie rzeczywistym łączy światło widzialne w ciągu dnia z promieniowaniem podczerwonym w nocy. W nocy obraz nie jest ciemny, ponieważ promieniowanie podczerwone może wykrywać różnice temperatur. Niestety niskie chmury i mgłę trudno odróżnić od temperatury gruntu, przez co mogą być prawie niewidoczne w nocy. Zdjęcia satelitarne Meteosat dla Europy są aktualizowane w czasie rzeczywistym co 5 minut. Obrazy GOES-16/GOES-17 (Ameryka Północna i Południowa) oraz Himawari (Azja) są aktualizowane co 10 minut.

Opady zostały oszacowane na podstawie danych radarowych i satelitarnych. Szacunkowe dane opadów nocnych są mniej dokładne niż dane w ciągu dnia. Pomarańczowe krzyżyki oznaczają miejsca, gdzie zaobserwowano pioruny (nad Europa).

Prawa autorskie 2022 EUMETSAT / meteoblue. Dane dot. błyskawic dostarczone przez nowcast.

Powrót do góry